sensor_id;sensor_type;location;lat;lon;timestamp;pressure;altitude;pressure_sealevel;temperature;humidity
48517;BME280;34310;51.904;4.256;2023-07-13T00:00:40;101427.91;;;25.77;47.41
48517;BME280;34310;51.904;4.256;2023-07-13T00:03:06;101434.91;;;25.75;47.56
48517;BME280;34310;51.904;4.256;2023-07-13T00:05:33;101441.97;;;25.76;47.64
48517;BME280;34310;51.904;4.256;2023-07-13T00:07:59;101432.19;;;25.72;47.42
48517;BME280;34310;51.904;4.256;2023-07-13T00:10:26;101428.63;;;25.70;47.67
48517;BME280;34310;51.904;4.256;2023-07-13T00:12:52;101434.81;;;25.72;47.60
48517;BME280;34310;51.904;4.256;2023-07-13T00:15:22;101430.44;;;25.72;47.68
48517;BME280;34310;51.904;4.256;2023-07-13T00:17:51;101441.88;;;25.71;47.58
48517;BME280;34310;51.904;4.256;2023-07-13T00:20:19;101441.00;;;25.72;47.94
48517;BME280;34310;51.904;4.256;2023-07-13T00:22:46;101437.44;;;25.70;47.83
48517;BME280;34310;51.904;4.256;2023-07-13T00:25:13;101444.47;;;25.68;47.99
48517;BME280;34310;51.904;4.256;2023-07-13T00:27:43;101444.50;;;25.70;47.87
48517;BME280;34310;51.904;4.256;2023-07-13T00:30:11;101448.91;;;25.71;47.76
48517;BME280;34310;51.904;4.256;2023-07-13T00:32:37;101436.44;;;25.65;48.07
48517;BME280;34310;51.904;4.256;2023-07-13T00:35:04;101439.97;;;25.66;48.06
48517;BME280;34310;51.904;4.256;2023-07-13T00:37:31;101452.41;;;25.68;48.01
48517;BME280;34310;51.904;4.256;2023-07-13T00:39:58;101441.78;;;25.67;47.88
48517;BME280;34310;51.904;4.256;2023-07-13T00:42:24;101439.97;;;25.66;47.89
48517;BME280;34310;51.904;4.256;2023-07-13T00:45:06;101436.44;;;25.65;47.96
48517;BME280;34310;51.904;4.256;2023-07-13T00:47:33;101431.03;;;25.59;47.96
48517;BME280;34310;51.904;4.256;2023-07-13T00:50:00;101436.34;;;25.60;48.09
48517;BME280;34310;51.904;4.256;2023-07-13T00:52:27;101446.13;;;25.64;48.13
48517;BME280;34310;51.904;4.256;2023-07-13T00:54:54;101442.53;;;25.61;48.19
48517;BME280;34310;51.904;4.256;2023-07-13T00:57:22;101447.00;;;25.63;48.21
48517;BME280;34310;51.904;4.256;2023-07-13T00:59:52;101446.97;;;25.62;48.03
48517;BME280;34310;51.904;4.256;2023-07-13T01:02:20;101441.69;;;25.62;48.13
48517;BME280;34310;51.904;4.256;2023-07-13T01:04:47;101451.38;;;25.61;48.25
48517;BME280;34310;51.904;4.256;2023-07-13T01:07:14;101450.41;;;25.58;48.29
48517;BME280;34310;51.904;4.256;2023-07-13T01:09:41;101446.03;;;25.60;48.18
48517;BME280;34310;51.904;4.256;2023-07-13T01:12:07;101456.63;;;25.60;48.27
48517;BME280;34310;51.904;4.256;2023-07-13T01:14:34;101455.72;;;25.59;48.39
48517;BME280;34310;51.904;4.256;2023-07-13T01:17:01;101441.59;;;25.57;48.26
48517;BME280;34310;51.904;4.256;2023-07-13T01:19:36;101453.06;;;25.58;48.30
48517;BME280;34310;51.904;4.256;2023-07-13T01:22:05;101456.56;;;25.57;48.29
48517;BME280;34310;51.904;4.256;2023-07-13T01:24:32;101464.47;;;25.55;48.46
48517;BME280;34310;51.904;4.256;2023-07-13T01:26:58;101466.22;;;25.55;48.37
48517;BME280;34310;51.904;4.256;2023-07-13T01:29:25;101465.34;;;25.54;48.38
48517;BME280;34310;51.904;4.256;2023-07-13T01:31:51;101453.81;;;25.51;48.40
48517;BME280;34310;51.904;4.256;2023-07-13T01:34:18;101464.41;;;25.52;48.29
48517;BME280;34310;51.904;4.256;2023-07-13T01:36:44;101460.88;;;25.52;48.62
48517;BME280;34310;51.904;4.256;2023-07-13T01:39:11;101454.69;;;25.51;48.46
48517;BME280;34310;51.904;4.256;2023-07-13T01:41:37;101462.59;;;25.50;48.30
48517;BME280;34310;51.904;4.256;2023-07-13T01:44:04;101456.44;;;25.49;48.22
48517;BME280;34310;51.904;4.256;2023-07-13T01:46:31;101455.53;;;25.49;48.50
48517;BME280;34310;51.904;4.256;2023-07-13T01:48:57;101456.38;;;25.46;48.47
48517;BME280;34310;51.904;4.256;2023-07-13T01:51:24;101450.09;;;25.43;48.47
48517;BME280;34310;51.904;4.256;2023-07-13T01:53:50;101458.13;;;25.46;48.56
48517;BME280;34310;51.904;4.256;2023-07-13T01:56:17;101458.03;;;25.43;48.39
48517;BME280;34310;51.904;4.256;2023-07-13T01:58:45;101466.00;;;25.44;48.62
48517;BME280;34310;51.904;4.256;2023-07-13T02:01:11;101465.09;;;25.44;48.64
48517;BME280;34310;51.904;4.256;2023-07-13T02:03:38;101465.97;;;25.43;48.68
48517;BME280;34310;51.904;4.256;2023-07-13T02:06:04;101466.81;;;25.42;48.52
48517;BME280;34310;51.904;4.256;2023-07-13T02:08:32;101468.53;;;25.40;48.74
48517;BME280;34310;51.904;4.256;2023-07-13T02:10:59;101461.41;;;25.36;48.62
48517;BME280;34310;51.904;4.256;2023-07-13T02:13:26;101467.63;;;25.38;48.69
48517;BME280;34310;51.904;4.256;2023-07-13T02:15:53;101467.63;;;25.38;48.71
48517;BME280;34310;51.904;4.256;2023-07-13T02:18:19;101469.38;;;25.37;48.51
48517;BME280;34310;51.904;4.256;2023-07-13T02:20:46;101464.91;;;25.35;48.54
48517;BME280;34310;51.904;4.256;2023-07-13T02:23:12;101456.97;;;25.33;48.95
48517;BME280;34310;51.904;4.256;2023-07-13T02:25:39;101469.31;;;25.34;48.77
48517;BME280;34310;51.904;4.256;2023-07-13T02:28:05;101461.38;;;25.34;48.68
48517;BME280;34310;51.904;4.256;2023-07-13T02:30:34;101469.28;;;25.32;48.97
48517;BME280;34310;51.904;4.256;2023-07-13T02:33:00;101462.25;;;25.33;48.76
48517;BME280;34310;51.904;4.256;2023-07-13T02:35:27;101471.94;;;25.32;48.79
48517;BME280;34310;51.904;4.256;2023-07-13T02:37:54;101467.47;;;25.30;48.98
48517;BME280;34310;51.904;4.256;2023-07-13T02:40:20;101470.13;;;25.30;48.80
48517;BME280;34310;51.904;4.256;2023-07-13T02:42:47;101467.44;;;25.28;48.75
48517;BME280;34310;51.904;4.256;2023-07-13T02:45:13;101469.22;;;25.29;48.94
48517;BME280;34310;51.904;4.256;2023-07-13T02:47:41;101469.19;;;25.28;48.93
48517;BME280;34310;51.904;4.256;2023-07-13T02:50:08;101468.31;;;25.27;49.06
48517;BME280;34310;51.904;4.256;2023-07-13T02:52:35;101467.34;;;25.24;49.02
48517;BME280;34310;51.904;4.256;2023-07-13T02:55:01;101477.09;;;25.26;48.82
48517;BME280;34310;51.904;4.256;2023-07-13T02:57:28;101468.28;;;25.26;48.87
48517;BME280;34310;51.904;4.256;2023-07-13T02:59:55;101469.09;;;25.23;48.98
48517;BME280;34310;51.904;4.256;2023-07-13T03:02:21;101478.81;;;25.24;49.14
48517;BME280;34310;51.904;4.256;2023-07-13T03:04:48;101480.53;;;25.22;49.12
48517;BME280;34310;51.904;4.256;2023-07-13T03:07:14;101484.97;;;25.23;48.91
48517;BME280;34310;51.904;4.256;2023-07-13T03:09:41;101473.41;;;25.18;49.10
48517;BME280;34310;51.904;4.256;2023-07-13T03:12:08;101482.25;;;25.20;49.05
48517;BME280;34310;51.904;4.256;2023-07-13T03:14:34;101476.06;;;25.18;49.23
48517;BME280;34310;51.904;4.256;2023-07-13T03:17:00;101480.47;;;25.19;49.11
48517;BME280;34310;51.904;4.256;2023-07-13T03:19:27;101478.66;;;25.17;49.23
48517;BME280;34310;51.904;4.256;2023-07-13T03:21:54;101479.56;;;25.17;49.27
48517;BME280;34310;51.904;4.256;2023-07-13T03:24:20;101482.19;;;25.17;49.23
48517;BME280;34310;51.904;4.256;2023-07-13T03:26:46;101481.31;;;25.17;49.05
48517;BME280;34310;51.904;4.256;2023-07-13T03:29:13;101481.25;;;25.15;49.32
48517;BME280;34310;51.904;4.256;2023-07-13T03:31:40;101482.16;;;25.16;49.27
48517;BME280;34310;51.904;4.256;2023-07-13T03:34:06;101476.78;;;25.13;49.32
48517;BME280;34310;51.904;4.256;2023-07-13T03:36:33;101482.06;;;25.13;49.12
48517;BME280;34310;51.904;4.256;2023-07-13T03:39:02;101484.72;;;25.13;49.25
48517;BME280;34310;51.904;4.256;2023-07-13T03:41:29;101484.69;;;25.11;49.21
48517;BME280;34310;51.904;4.256;2023-07-13T03:43:56;101482.94;;;25.12;49.33
48517;BME280;34310;51.904;4.256;2023-07-13T03:46:22;101489.06;;;25.11;49.37
48517;BME280;34310;51.904;4.256;2023-07-13T03:48:49;101477.56;;;25.07;49.11
48517;BME280;34310;51.904;4.256;2023-07-13T03:51:16;101491.69;;;25.09;49.37
48517;BME280;34310;51.904;4.256;2023-07-13T03:53:44;101496.06;;;25.09;49.19
48517;BME280;34310;51.904;4.256;2023-07-13T03:56:11;101492.53;;;25.08;49.39
48517;BME280;34310;51.904;4.256;2023-07-13T03:58:40;101490.75;;;25.07;49.46
48517;BME280;34310;51.904;4.256;2023-07-13T04:01:08;101495.16;;;25.07;49.50
48517;BME280;34310;51.904;4.256;2023-07-13T04:06:04;101496.88;;;25.05;49.43
48517;BME280;34310;51.904;4.256;2023-07-13T04:08:36;101492.47;;;25.05;49.60
48517;BME280;34310;51.904;4.256;2023-07-13T04:11:04;101500.41;;;25.05;49.35
48517;BME280;34310;51.904;4.256;2023-07-13T04:13:31;101489.75;;;25.00;49.69
48517;BME280;34310;51.904;4.256;2023-07-13T04:15:57;101488.00;;;25.01;49.38
48517;BME280;34310;51.904;4.256;2023-07-13T04:18:24;101492.41;;;25.02;49.56
48517;BME280;34310;51.904;4.256;2023-07-13T04:20:51;101497.69;;;25.02;49.56
48517;BME280;34310;51.904;4.256;2023-07-13T04:23:18;101505.63;;;25.02;49.47
48517;BME280;34310;51.904;4.256;2023-07-13T04:25:49;101504.69;;;25.00;49.66
48517;BME280;34310;51.904;4.256;2023-07-13T04:28:17;101509.13;;;25.01;49.40
48517;BME280;34310;51.904;4.256;2023-07-13T04:30:44;101509.97;;;25.00;49.49
48517;BME280;34310;51.904;4.256;2023-07-13T04:33:11;101515.28;;;25.00;49.66
48517;BME280;34310;51.904;4.256;2023-07-13T04:35:38;101512.63;;;25.00;49.58
48517;BME280;34310;51.904;4.256;2023-07-13T04:38:04;101519.66;;;24.99;49.65
48517;BME280;34310;51.904;4.256;2023-07-13T04:40:31;101516.94;;;24.98;49.37
48517;BME280;34310;51.904;4.256;2023-07-13T04:42:57;101517.88;;;24.98;49.59
48517;BME280;34310;51.904;4.256;2023-07-13T04:45:24;101516.00;;;24.94;49.74
48517;BME280;34310;51.904;4.256;2023-07-13T04:47:51;101519.53;;;24.95;49.67
48517;BME280;34310;51.904;4.256;2023-07-13T04:50:17;101522.22;;;24.98;49.67
48517;BME280;34310;51.904;4.256;2023-07-13T04:52:44;101525.72;;;24.97;49.70
48517;BME280;34310;51.904;4.256;2023-07-13T04:55:10;101527.44;;;24.95;49.67
48517;BME280;34310;51.904;4.256;2023-07-13T04:57:37;101530.09;;;24.95;49.60
48517;BME280;34310;51.904;4.256;2023-07-13T05:00:04;101528.31;;;24.94;49.61
48517;BME280;34310;51.904;4.256;2023-07-13T05:02:31;101537.16;;;24.96;49.85
48517;BME280;34310;51.904;4.256;2023-07-13T05:04:58;101536.25;;;24.94;49.62
48517;BME280;34310;51.904;4.256;2023-07-13T05:07:25;101539.75;;;24.93;49.87
48517;BME280;34310;51.904;4.256;2023-07-13T05:09:52;101537.13;;;24.94;49.72
48517;BME280;34310;51.904;4.256;2023-07-13T05:12:18;101530.00;;;24.90;49.64
48517;BME280;34310;51.904;4.256;2023-07-13T05:14:45;101540.59;;;24.92;49.75
48517;BME280;34310;51.904;4.256;2023-07-13T05:17:11;101541.53;;;24.94;49.83
48517;BME280;34310;51.904;4.256;2023-07-13T05:19:38;101542.38;;;24.93;49.83
48517;BME280;34310;51.904;4.256;2023-07-13T05:22:04;101544.13;;;24.92;49.69
48517;BME280;34310;51.904;4.256;2023-07-13T05:24:31;101537.88;;;24.89;49.99
48517;BME280;34310;51.904;4.256;2023-07-13T05:26:58;101541.50;;;24.92;49.76
48517;BME280;34310;51.904;4.256;2023-07-13T05:29:24;101538.81;;;24.91;49.82
48517;BME280;34310;51.904;4.256;2023-07-13T05:31:51;101536.16;;;24.91;49.69
48517;BME280;34310;51.904;4.256;2023-07-13T05:34:17;101550.22;;;24.90;50.01
48517;BME280;34310;51.904;4.256;2023-07-13T05:36:44;101541.38;;;24.88;49.77
48517;BME280;34310;51.904;4.256;2023-07-13T05:39:11;101554.66;;;24.91;49.92
48517;BME280;34310;51.904;4.256;2023-07-13T05:41:37;101555.50;;;24.90;49.65
48517;BME280;34310;51.904;4.256;2023-07-13T05:44:04;101566.09;;;24.90;49.86
48517;BME280;34310;51.904;4.256;2023-07-13T05:46:30;101568.72;;;24.90;49.78
48517;BME280;34310;51.904;4.256;2023-07-13T05:48:57;101574.00;;;24.90;49.96
48517;BME280;34310;51.904;4.256;2023-07-13T05:51:23;101584.56;;;24.90;49.84
48517;BME280;34310;51.904;4.256;2023-07-13T05:53:50;101573.00;;;24.86;49.98
48517;BME280;34310;51.904;4.256;2023-07-13T05:56:16;101571.22;;;24.85;49.86
48517;BME280;34310;51.904;4.256;2023-07-13T05:58:43;101588.06;;;24.89;49.93
48517;BME280;34310;51.904;4.256;2023-07-13T06:01:12;101578.38;;;24.88;49.86
48517;BME280;34310;51.904;4.256;2023-07-13T06:03:40;101586.31;;;24.89;49.86
48517;BME280;34310;51.904;4.256;2023-07-13T06:06:08;101580.94;;;24.86;49.95
48517;BME280;34310;51.904;4.256;2023-07-13T06:08:35;101588.03;;;24.87;49.75
48517;BME280;34310;51.904;4.256;2023-07-13T06:11:13;101594.22;;;24.88;49.85
48517;BME280;34310;51.904;4.256;2023-07-13T06:13:40;101598.50;;;24.84;49.92
48517;BME280;34310;51.904;4.256;2023-07-13T06:16:06;101592.34;;;24.85;50.22
48517;BME280;34310;51.904;4.256;2023-07-13T06:18:33;101600.34;;;24.87;50.15
48517;BME280;34310;51.904;4.256;2023-07-13T06:21:05;101603.88;;;24.87;50.06
48517;BME280;34310;51.904;4.256;2023-07-13T06:23:31;101606.53;;;24.87;50.07
48517;BME280;34310;51.904;4.256;2023-07-13T06:25:58;101609.09;;;24.86;50.15
48517;BME280;34310;51.904;4.256;2023-07-13T06:28:24;101611.75;;;24.86;50.58
48517;BME280;34310;51.904;4.256;2023-07-13T06:30:51;101615.25;;;24.85;50.72
48517;BME280;34310;51.904;4.256;2023-07-13T06:33:18;101611.75;;;24.86;51.12
48517;BME280;34310;51.904;4.256;2023-07-13T06:35:44;101620.63;;;24.88;50.98
48517;BME280;34310;51.904;4.256;2023-07-13T06:38:10;101620.53;;;24.85;51.28
48517;BME280;34310;51.904;4.256;2023-07-13T06:40:37;101610.91;;;24.87;50.72
48517;BME280;34310;51.904;4.256;2023-07-13T06:43:03;101614.59;;;24.93;50.63
48517;BME280;34310;51.904;4.256;2023-07-13T06:45:30;101609.34;;;24.95;50.84
48517;BME280;34310;51.904;4.256;2023-07-13T06:47:56;101618.28;;;24.98;50.53
48517;BME280;34310;51.904;4.256;2023-07-13T06:50:23;101620.91;;;24.98;50.27
48517;BME280;34310;51.904;4.256;2023-07-13T06:52:49;101626.19;;;24.98;50.62
48517;BME280;34310;51.904;4.256;2023-07-13T06:55:16;101623.56;;;24.98;50.69
48517;BME280;34310;51.904;4.256;2023-07-13T06:57:42;101624.44;;;24.99;50.82
48517;BME280;34310;51.904;4.256;2023-07-13T07:00:09;101630.66;;;25.01;50.44
48517;BME280;34310;51.904;4.256;2023-07-13T07:02:36;101632.38;;;24.99;50.25
48517;BME280;34310;51.904;4.256;2023-07-13T07:05:03;101632.38;;;24.99;50.62
48517;BME280;34310;51.904;4.256;2023-07-13T07:07:29;101639.47;;;25.01;50.54
48517;BME280;34310;51.904;4.256;2023-07-13T07:09:56;101631.53;;;25.00;50.63
48517;BME280;34310;51.904;4.256;2023-07-13T07:12:22;101644.75;;;25.01;50.50
48517;BME280;34310;51.904;4.256;2023-07-13T07:14:49;101646.50;;;25.01;50.83
48517;BME280;34310;51.904;4.256;2023-07-13T07:17:15;101646.56;;;25.02;50.78
48517;BME280;34310;51.904;4.256;2023-07-13T07:19:42;101650.94;;;25.02;50.60
48517;BME280;34310;51.904;4.256;2023-07-13T07:22:08;101643.91;;;25.02;50.60
48517;BME280;34310;51.904;4.256;2023-07-13T07:24:35;101648.38;;;25.05;50.23
48517;BME280;34310;51.904;4.256;2023-07-13T07:27:01;101646.59;;;25.04;50.51
48517;BME280;34310;51.904;4.256;2023-07-13T07:29:31;101644.75;;;25.01;50.59
48517;BME280;34310;51.904;4.256;2023-07-13T07:32:00;101652.81;;;25.06;50.50
48517;BME280;34310;51.904;4.256;2023-07-13T07:34:31;101648.50;;;25.11;50.53
48517;BME280;34310;51.904;4.256;2023-07-13T07:37:00;101652.94;;;25.12;50.38
48517;BME280;34310;51.904;4.256;2023-07-13T07:39:30;101649.34;;;25.09;50.37
48517;BME280;34310;51.904;4.256;2023-07-13T07:41:56;101660.88;;;25.12;50.40
48517;BME280;34310;51.904;4.256;2023-07-13T07:44:23;101655.59;;;25.12;50.52
48517;BME280;34310;51.904;4.256;2023-07-13T07:46:49;101657.38;;;25.13;50.61
48517;BME280;34310;51.904;4.256;2023-07-13T07:49:16;101655.63;;;25.14;50.28
48517;BME280;34310;51.904;4.256;2023-07-13T07:51:42;101657.41;;;25.15;50.52
48517;BME280;34310;51.904;4.256;2023-07-13T07:54:09;101658.22;;;25.12;50.25
48517;BME280;34310;51.904;4.256;2023-07-13T07:56:40;101669.84;;;25.17;50.30
48517;BME280;34310;51.904;4.256;2023-07-13T07:59:09;101675.13;;;25.17;50.54
48517;BME280;34310;51.904;4.256;2023-07-13T08:01:38;101668.97;;;25.18;50.33
48517;BME280;34310;51.904;4.256;2023-07-13T08:04:08;101661.97;;;25.20;50.26
48517;BME280;34310;51.904;4.256;2023-07-13T08:06:54;101668.19;;;25.22;50.19
48517;BME280;34310;51.904;4.256;2023-07-13T08:09:21;101661.09;;;25.20;50.34
48517;BME280;34310;51.904;4.256;2023-07-13T08:11:47;101658.50;;;25.23;50.11
48517;BME280;34310;51.904;4.256;2023-07-13T08:14:17;101659.28;;;25.19;50.07
48517;BME280;34310;51.904;4.256;2023-07-13T08:16:43;101663.72;;;25.20;50.50
48517;BME280;34310;51.904;4.256;2023-07-13T08:19:10;101672.59;;;25.22;50.25
48517;BME280;34310;51.904;4.256;2023-07-13T08:21:37;101680.53;;;25.23;50.26
48517;BME280;34310;51.904;4.256;2023-07-13T08:24:03;101684.13;;;25.25;49.96
48517;BME280;34310;51.904;4.256;2023-07-13T08:26:30;101678.88;;;25.27;50.14
48517;BME280;34310;51.904;4.256;2023-07-13T08:28:56;101676.19;;;25.25;50.01
48517;BME280;34310;51.904;4.256;2023-07-13T08:31:23;101679.78;;;25.29;50.15
48517;BME280;34310;51.904;4.256;2023-07-13T08:33:49;101674.50;;;25.29;50.29
48517;BME280;34310;51.904;4.256;2023-07-13T08:36:16;101680.63;;;25.26;50.14
48517;BME280;34310;51.904;4.256;2023-07-13T08:38:43;101682.38;;;25.26;50.10
48517;BME280;34310;51.904;4.256;2023-07-13T08:41:20;101690.34;;;25.27;50.20
48517;BME280;34310;51.904;4.256;2023-07-13T08:43:50;101684.97;;;25.24;50.22
48517;BME280;34310;51.904;4.256;2023-07-13T08:46:23;101696.44;;;25.25;50.31
48517;BME280;34310;51.904;4.256;2023-07-13T08:49:04;101699.97;;;25.25;50.10
48517;BME280;34310;51.904;4.256;2023-07-13T08:51:47;101697.38;;;25.27;50.08
48517;BME280;34310;51.904;4.256;2023-07-13T08:54:25;101703.56;;;25.27;50.09
48517;BME280;34310;51.904;4.256;2023-07-13T08:56:53;101715.84;;;25.25;50.45
48517;BME280;34310;51.904;4.256;2023-07-13T08:59:27;101707.94;;;25.27;50.17
48517;BME280;34310;51.904;4.256;2023-07-13T09:05:03;101703.59;;;25.29;50.12
48517;BME280;34310;51.904;4.256;2023-07-13T09:12:44;101715.06;;;25.29;50.19
48517;BME280;34310;51.904;4.256;2023-07-13T09:15:26;101712.44;;;25.31;50.07
48517;BME280;34310;51.904;4.256;2023-07-13T09:17:57;101706.25;;;25.30;50.25
48517;BME280;34310;51.904;4.256;2023-07-13T09:20:49;101712.47;;;25.32;50.16
48517;BME280;34310;51.904;4.256;2023-07-13T09:23:20;101712.44;;;25.31;50.28
48517;BME280;34310;51.904;4.256;2023-07-13T09:25:49;101713.34;;;25.31;50.28
48517;BME280;34310;51.904;4.256;2023-07-13T09:28:23;101714.22;;;25.32;50.44
48517;BME280;34310;51.904;4.256;2023-07-13T09:33:16;101721.31;;;25.33;50.24
48517;BME280;34310;51.904;4.256;2023-07-13T09:35:43;101723.97;;;25.35;50.15
48517;BME280;34310;51.904;4.256;2023-07-13T09:38:19;101719.56;;;25.33;50.39
48517;BME280;34310;51.904;4.256;2023-07-13T09:41:13;101722.22;;;25.35;50.45
48517;BME280;34310;51.904;4.256;2023-07-13T09:44:01;101723.06;;;25.32;50.31
48517;BME280;34310;51.904;4.256;2023-07-13T09:46:28;101728.41;;;25.36;50.41
48517;BME280;34310;51.904;4.256;2023-07-13T09:48:55;101732.81;;;25.35;50.47
48517;BME280;34310;51.904;4.256;2023-07-13T09:51:22;101731.91;;;25.35;50.32
48517;BME280;34310;51.904;4.256;2023-07-13T09:53:49;101737.16;;;25.33;50.64
48517;BME280;34310;51.904;4.256;2023-07-13T09:56:21;101737.19;;;25.35;50.32
48517;BME280;34310;51.904;4.256;2023-07-13T09:58:47;101733.66;;;25.34;50.59
48517;BME280;34310;51.904;4.256;2023-07-13T10:01:14;101742.53;;;25.36;50.51
48517;BME280;34310;51.904;4.256;2023-07-13T10:03:53;101733.56;;;25.29;50.83
48517;BME280;34310;51.904;4.256;2023-07-13T10:06:22;101737.19;;;25.35;50.82
48517;BME280;34310;51.904;4.256;2023-07-13T10:08:51;101737.16;;;25.33;50.67
48517;BME280;34310;51.904;4.256;2023-07-13T10:11:20;101739.84;;;25.35;50.98
48517;BME280;34310;51.904;4.256;2023-07-13T10:14:00;101745.94;;;25.32;50.92
48517;BME280;34310;51.904;4.256;2023-07-13T10:16:34;101748.59;;;25.32;50.96
48517;BME280;34310;51.904;4.256;2023-07-13T10:19:10;101761.78;;;25.30;51.10
48517;BME280;34310;51.904;4.256;2023-07-13T10:21:58;101769.78;;;25.33;50.61
48517;BME280;34310;51.904;4.256;2023-07-13T10:24:29;101760.78;;;25.25;51.13
48517;BME280;34310;51.904;4.256;2023-07-13T10:27:13;101769.72;;;25.30;51.13
48517;BME280;34310;51.904;4.256;2023-07-13T10:29:48;101773.28;;;25.32;50.85
48517;BME280;34310;51.904;4.256;2023-07-13T10:32:19;101775.06;;;25.33;51.08
48517;BME280;34310;51.904;4.256;2023-07-13T10:34:48;101766.16;;;25.30;51.14
48517;BME280;34310;51.904;4.256;2023-07-13T10:38:01;101778.56;;;25.32;51.12
48517;BME280;34310;51.904;4.256;2023-07-13T10:41:00;101777.72;;;25.33;51.23
48517;BME280;34310;51.904;4.256;2023-07-13T10:43:37;101776.78;;;25.31;51.18
48517;BME280;34310;51.904;4.256;2023-07-13T10:46:07;101777.63;;;25.30;51.31
48517;BME280;34310;51.904;4.256;2023-07-13T10:48:35;101781.13;;;25.29;51.51
48517;BME280;34310;51.904;4.256;2023-07-13T10:51:04;101779.47;;;25.33;51.29
48517;BME280;34310;51.904;4.256;2023-07-13T10:53:37;101782.25;;;25.39;51.26
48517;BME280;34310;51.904;4.256;2023-07-13T10:58:39;101788.44;;;25.40;51.18
48517;BME280;34310;51.904;4.256;2023-07-13T11:03:36;101788.47;;;25.41;51.18
48517;BME280;34310;51.904;4.256;2023-07-13T11:06:09;101791.16;;;25.43;51.21
48517;BME280;34310;51.904;4.256;2023-07-13T11:08:53;101777.97;;;25.44;51.08
48517;BME280;34310;51.904;4.256;2023-07-13T11:18:54;101791.25;;;25.46;51.33
48517;BME280;34310;51.904;4.256;2023-07-13T11:21:35;101776.16;;;25.42;51.14
48517;BME280;34310;51.904;4.256;2023-07-13T11:24:15;101794.09;;;25.53;50.97
48517;BME280;34310;51.904;4.256;2023-07-13T11:31:55;101789.72;;;25.55;50.51
48517;BME280;34310;51.904;4.256;2023-07-13T11:34:29;101793.25;;;25.56;50.59
48517;BME280;34310;51.904;4.256;2023-07-13T11:36:58;101794.16;;;25.56;51.11
48517;BME280;34310;51.904;4.256;2023-07-13T11:39:32;101793.31;;;25.57;50.84
48517;BME280;34310;51.904;4.256;2023-07-13T11:42:02;101800.34;;;25.57;50.81
48517;BME280;34310;51.904;4.256;2023-07-13T11:44:31;101797.78;;;25.60;50.92
48517;BME280;34310;51.904;4.256;2023-07-13T11:47:00;101805.66;;;25.58;50.75
48517;BME280;34310;51.904;4.256;2023-07-13T11:49:45;101795.16;;;25.61;50.84
48517;BME280;34310;51.904;4.256;2023-07-13T11:52:16;101799.59;;;25.62;50.79
48517;BME280;34310;51.904;4.256;2023-07-13T11:54:49;101804.91;;;25.64;50.69
48517;BME280;34310;51.904;4.256;2023-07-13T11:57:29;101797.88;;;25.64;50.73
48517;BME280;34310;51.904;4.256;2023-07-13T11:59:56;101800.56;;;25.66;50.74
48517;BME280;34310;51.904;4.256;2023-07-13T12:02:35;101801.53;;;25.68;50.66
48517;BME280;34310;51.904;4.256;2023-07-13T12:05:04;101795.38;;;25.69;50.81
48517;BME280;34310;51.904;4.256;2023-07-13T12:07:33;101797.09;;;25.67;50.85
48517;BME280;34310;51.904;4.256;2023-07-13T12:10:17;101808.75;;;25.74;50.97
48517;BME280;34310;51.904;4.256;2023-07-13T12:12:57;101795.53;;;25.75;50.72
48517;BME280;34310;51.904;4.256;2023-07-13T12:15:29;101792.91;;;25.75;50.51
48517;BME280;34310;51.904;4.256;2023-07-13T12:17:57;101801.72;;;25.76;50.73
48517;BME280;34310;51.904;4.256;2023-07-13T12:20:27;101792.97;;;25.78;50.55
48517;BME280;34310;51.904;4.256;2023-07-13T12:22:56;101792.13;;;25.79;50.75
48517;BME280;34310;51.904;4.256;2023-07-13T12:25:28;101800.06;;;25.79;50.68
48517;BME280;34310;51.904;4.256;2023-07-13T12:27:55;101797.47;;;25.82;50.68
48517;BME280;34310;51.904;4.256;2023-07-13T12:30:30;101798.44;;;25.86;50.48
48517;BME280;34310;51.904;4.256;2023-07-13T12:33:16;101800.22;;;25.87;50.54
48517;BME280;34310;51.904;4.256;2023-07-13T12:35:48;101798.47;;;25.87;50.50
48517;BME280;34310;51.904;4.256;2023-07-13T12:38:16;101799.47;;;25.92;50.47
48517;BME280;34310;51.904;4.256;2023-07-13T12:40:43;101796.84;;;25.94;50.41
48517;BME280;34310;51.904;4.256;2023-07-13T12:43:13;101796.88;;;25.96;50.47
48517;BME280;34310;51.904;4.256;2023-07-13T12:45:57;101792.53;;;25.98;50.35
48517;BME280;34310;51.904;4.256;2023-07-13T12:48:25;101788.88;;;25.92;50.38
48517;BME280;34310;51.904;4.256;2023-07-13T12:51:12;101802.22;;;25.97;50.43
48517;BME280;34310;51.904;4.256;2023-07-13T12:53:48;101800.50;;;25.99;50.22
48517;BME280;34310;51.904;4.256;2023-07-13T12:56:21;101798.75;;;26.00;50.20
48517;BME280;34310;51.904;4.256;2023-07-13T12:58:49;101801.41;;;26.01;50.35
48517;BME280;34310;51.904;4.256;2023-07-13T13:01:17;101792.59;;;26.01;50.24
48517;BME280;34310;51.904;4.256;2023-07-13T13:03:49;101807.72;;;26.05;50.31
48517;BME280;34310;51.904;4.256;2023-07-13T13:08:43;101804.13;;;26.03;50.29
48517;BME280;34310;51.904;4.256;2023-07-13T13:11:10;101788.19;;;26.01;50.06
48517;BME280;34310;51.904;4.256;2023-07-13T13:13:36;101812.25;;;26.10;50.16
48517;BME280;34310;51.904;4.256;2023-07-13T13:16:12;101813.13;;;26.11;50.16
48517;BME280;34310;51.904;4.256;2023-07-13T13:18:41;101804.41;;;26.15;50.06
48517;BME280;34310;51.904;4.256;2023-07-13T13:21:09;101809.66;;;26.13;50.04
48517;BME280;34310;51.904;4.256;2023-07-13T13:23:35;101811.47;;;26.16;50.24
48517;BME280;34310;51.904;4.256;2023-07-13T13:26:03;101804.38;;;26.13;50.02
48517;BME280;34310;51.904;4.256;2023-07-13T13:28:31;101817.63;;;26.15;49.91
48517;BME280;34310;51.904;4.256;2023-07-13T13:30:57;101815.09;;;26.19;49.84
48517;BME280;34310;51.904;4.256;2023-07-13T13:33:27;101813.34;;;26.20;50.00